createdAt,value
2023-05-22T00:04:21.959Z,13.35
2023-05-22T00:09:18.892Z,13.07
2023-05-22T00:14:15.712Z,14.17
2023-05-22T00:19:17.222Z,14.10
2023-05-22T00:24:13.755Z,13.48
2023-05-22T00:29:10.807Z,14.43
2023-05-22T00:34:07.248Z,17.37
2023-05-22T00:39:03.898Z,15.00
2023-05-22T00:44:00.666Z,15.93
2023-05-22T00:48:57.128Z,16.70
2023-05-22T00:53:54.572Z,15.85
2023-05-22T00:58:50.960Z,17.65
2023-05-22T01:03:47.839Z,16.05
2023-05-22T01:08:44.626Z,17.23
2023-05-22T01:14:00.892Z,16.20
2023-05-22T01:19:31.727Z,17.33
2023-05-22T01:25:07.959Z,16.27
2023-05-22T01:30:26.334Z,15.68
2023-05-22T01:35:24.070Z,16.17
2023-05-22T01:40:21.068Z,16.83
2023-05-22T01:45:17.605Z,16.05
2023-05-22T01:50:14.637Z,16.50
2023-05-22T01:55:21.267Z,16.13
2023-05-22T02:00:21.403Z,17.38
2023-05-22T02:05:21.333Z,16.27
2023-05-22T02:10:18.691Z,15.50
2023-05-22T02:15:15.372Z,16.80
2023-05-22T02:20:16.656Z,16.52
2023-05-22T02:25:14.765Z,16.83
2023-05-22T02:30:12.287Z,15.02
2023-05-22T02:35:09.483Z,14.48
2023-05-22T02:40:06.683Z,15.63
2023-05-22T02:45:03.315Z,14.80
2023-05-22T02:49:59.818Z,15.07
2023-05-22T02:54:56.302Z,15.50
2023-05-22T02:59:54.093Z,14.20
2023-05-22T03:04:50.890Z,15.63
2023-05-22T03:09:47.451Z,15.60
2023-05-22T03:14:44.292Z,15.32
2023-05-22T03:19:41.567Z,14.57
2023-05-22T03:24:37.962Z,14.30
2023-05-22T03:29:34.351Z,14.02
2023-05-22T03:34:32.235Z,13.93
2023-05-22T03:44:25.182Z,13.23
2023-05-22T03:49:21.573Z,14.23
2023-05-22T03:54:18.317Z,14.68
2023-05-22T03:59:14.698Z,14.55
2023-05-22T04:04:12.169Z,14.68
2023-05-22T04:09:12.763Z,14.52
2023-05-22T04:14:09.752Z,13.52
2023-05-22T04:19:06.732Z,15.63
2023-05-22T04:24:07.060Z,10.83
2023-05-22T04:29:04.271Z,14.55
2023-05-22T04:34:01.073Z,13.90
2023-05-22T04:38:57.482Z,14.55
2023-05-22T04:43:54.127Z,13.32
2023-05-22T04:48:51.012Z,13.10
2023-05-22T04:53:49.754Z,12.35
2023-05-22T04:58:48.731Z,14.93
2023-05-22T05:03:45.354Z,13.68
2023-05-22T05:08:44.184Z,15.02
2023-05-22T05:13:41.674Z,12.80
2023-05-22T05:18:38.089Z,14.40
2023-05-22T05:23:34.464Z,14.10
2023-05-22T05:28:30.933Z,13.70
2023-05-22T05:33:27.790Z,13.88
2023-05-22T05:38:24.234Z,13.75
2023-05-22T05:43:20.752Z,13.18
2023-05-22T05:48:17.566Z,13.00
2023-05-22T05:53:14.087Z,14.20
2023-05-22T05:58:10.499Z,14.77
2023-05-22T06:03:07.142Z,13.55
2023-05-22T06:08:04.374Z,13.40
2023-05-22T06:13:00.877Z,12.77
2023-05-22T06:17:57.806Z,13.65
2023-05-22T06:22:54.253Z,12.43
2023-05-22T06:27:50.634Z,12.30
2023-05-22T06:32:47.336Z,12.30
2023-05-22T06:37:44.131Z,12.47
2023-05-22T06:42:40.979Z,12.10
2023-05-22T06:47:37.426Z,13.10
2023-05-22T06:52:33.931Z,11.93
2023-05-22T06:57:31.951Z,11.23
2023-05-22T07:02:28.669Z,11.10
2023-05-22T07:07:25.088Z,10.88
2023-05-22T07:12:25.894Z,12.80
2023-05-22T07:17:22.886Z,12.50
2023-05-22T07:22:19.407Z,10.93
2023-05-22T07:27:15.940Z,12.00
2023-05-22T07:32:12.383Z,11.95
2023-05-22T07:37:11.176Z,10.48
2023-05-22T07:42:07.834Z,10.68
2023-05-22T07:47:04.516Z,9.73
2023-05-22T07:52:00.918Z,9.77
2023-05-22T07:56:57.497Z,9.95
2023-05-22T08:01:54.216Z,9.00
2023-05-22T08:06:50.844Z,8.25
2023-05-22T08:11:47.526Z,8.10
2023-05-22T08:16:43.995Z,7.95
2023-05-22T08:21:40.433Z,8.07
2023-05-22T08:26:37.465Z,7.70
2023-05-22T08:36:34.201Z,7.57
2023-05-22T08:41:30.881Z,7.82
2023-05-22T08:46:29.333Z,8.20
2023-05-22T08:51:29.216Z,7.45
2023-05-22T08:56:28.675Z,7.47
2023-05-22T09:01:26.273Z,7.53
2023-05-22T09:06:23.236Z,7.68
2023-05-22T09:11:19.803Z,7.00
2023-05-22T09:16:16.861Z,7.78
2023-05-22T09:21:28.994Z,7.38
2023-05-22T09:26:29.552Z,7.72
2023-05-22T09:31:26.469Z,7.18
2023-05-22T09:41:28.130Z,7.85
2023-05-22T09:46:24.628Z,8.27
2023-05-22T09:51:23.767Z,7.70
2023-05-22T09:56:31.248Z,8.68
2023-05-22T10:01:36.879Z,8.80
2023-05-22T10:06:34.768Z,8.95
2023-05-22T10:11:33.231Z,8.85
2023-05-22T10:16:30.280Z,8.10
2023-05-22T10:21:28.881Z,8.85
2023-05-22T10:26:26.256Z,8.68
2023-05-22T10:31:57.788Z,9.98
2023-05-22T10:37:20.729Z,10.05
2023-05-22T10:42:18.315Z,11.20
2023-05-22T10:47:14.789Z,10.82
2023-05-22T10:52:11.442Z,12.57
2023-05-22T10:57:15.982Z,11.05
2023-05-22T11:02:29.761Z,10.63
2023-05-22T11:07:26.408Z,10.52
2023-05-22T11:12:31.029Z,10.35
2023-05-22T11:17:42.846Z,11.82
2023-05-22T11:22:44.128Z,12.68
2023-05-22T11:27:41.337Z,12.73
2023-05-22T11:32:39.158Z,11.68
2023-05-22T11:37:40.002Z,12.48
2023-05-22T11:42:37.699Z,11.27
2023-05-22T11:47:34.361Z,12.82
2023-05-22T11:52:36.491Z,11.52
2023-05-22T11:57:32.853Z,11.20
2023-05-22T12:02:30.384Z,12.97
2023-05-22T12:07:27.722Z,12.73
2023-05-22T12:12:24.367Z,12.65
2023-05-22T12:17:20.793Z,11.60
2023-05-22T12:22:17.259Z,13.65
2023-05-22T12:27:14.604Z,12.88
2023-05-22T12:32:12.450Z,12.75
2023-05-22T12:37:22.823Z,14.48
2023-05-22T12:42:19.359Z,16.70
2023-05-22T12:47:15.914Z,16.73
2023-05-22T12:52:13.304Z,16.70
2023-05-22T12:57:10.074Z,17.90
2023-05-22T13:02:07.004Z,17.20
2023-05-22T13:12:00.146Z,17.33
2023-05-22T13:21:53.335Z,16.93
2023-05-22T13:26:49.802Z,17.35
2023-05-22T13:31:46.314Z,18.30
2023-05-22T13:36:43.003Z,16.65
2023-05-22T13:41:39.430Z,17.27
2023-05-22T13:46:36.718Z,17.60
2023-05-22T13:51:35.875Z,18.05
2023-05-22T13:56:32.310Z,16.75
2023-05-22T14:01:29.036Z,18.67
2023-05-22T14:06:26.012Z,18.35
2023-05-22T14:11:23.100Z,16.58
2023-05-22T14:16:22.310Z,15.55
2023-05-22T14:21:19.438Z,16.20
2023-05-22T14:31:12.545Z,14.90
2023-05-22T14:36:09.018Z,14.90
2023-05-22T14:41:05.400Z,12.83
2023-05-22T14:46:01.913Z,14.68
2023-05-22T14:50:58.355Z,12.77
2023-05-22T14:55:54.761Z,12.10
2023-05-22T15:00:51.294Z,13.93
2023-05-22T15:05:47.753Z,14.45
2023-05-22T15:10:45.192Z,5.00
2023-05-22T15:15:42.466Z,4.53
2023-05-22T15:20:39.066Z,5.22
2023-05-22T15:25:36.545Z,4.68
2023-05-22T15:30:38.784Z,5.38
2023-05-22T15:35:35.361Z,4.50
2023-05-22T15:40:31.808Z,3.63
2023-05-22T15:45:28.620Z,3.85
2023-05-22T15:55:21.502Z,3.67
2023-05-22T16:00:18.810Z,5.47
2023-05-22T16:10:11.944Z,4.78
2023-05-22T16:15:08.976Z,7.10
2023-05-22T16:20:06.526Z,8.10
2023-05-22T16:25:02.998Z,7.32
2023-05-22T16:30:02.526Z,8.07
2023-05-22T16:34:58.946Z,9.45
2023-05-22T16:39:56.002Z,8.45
2023-05-22T16:44:52.571Z,7.57
2023-05-22T16:49:49.825Z,6.95
2023-05-22T16:54:46.458Z,5.78
2023-05-22T16:59:42.855Z,6.68
2023-05-22T17:04:40.576Z,6.60
2023-05-22T17:09:36.981Z,6.60
2023-05-22T17:14:34.349Z,6.38
2023-05-22T17:19:30.960Z,7.20
2023-05-22T17:24:27.817Z,7.13
2023-05-22T17:29:25.085Z,8.23
2023-05-22T17:34:24.207Z,8.77
2023-05-22T17:39:20.580Z,10.02
2023-05-22T17:44:17.092Z,9.30
2023-05-22T17:49:13.476Z,9.40
2023-05-22T17:54:09.907Z,10.90
2023-05-22T17:59:07.123Z,9.73
2023-05-22T18:04:04.807Z,9.43
2023-05-22T18:09:04.318Z,9.63
2023-05-22T18:14:00.758Z,9.00
2023-05-22T18:18:57.509Z,10.05
2023-05-22T18:23:55.135Z,8.85
2023-05-22T18:28:51.657Z,8.95
2023-05-22T18:33:48.065Z,7.68
2023-05-22T18:38:44.572Z,8.25
2023-05-22T18:43:41.091Z,8.70
2023-05-22T18:48:37.599Z,9.43
2023-05-22T18:53:34.469Z,10.18
2023-05-22T18:58:31.035Z,9.07
2023-05-22T19:03:27.473Z,10.02
2023-05-22T19:08:26.527Z,11.82
2023-05-22T19:13:22.888Z,11.07
2023-05-22T19:18:19.349Z,11.65
2023-05-22T19:23:15.740Z,12.52
2023-05-22T19:28:12.179Z,12.00
2023-05-22T19:33:09.157Z,12.13
2023-05-22T19:38:05.954Z,11.27
2023-05-22T19:43:02.519Z,11.77
2023-05-22T19:47:58.967Z,12.80
2023-05-22T19:52:55.552Z,12.85
2023-05-22T19:57:51.939Z,14.27
2023-05-22T20:02:48.486Z,12.95
2023-05-22T20:07:44.922Z,15.50
2023-05-22T20:12:41.403Z,14.38
2023-05-22T20:17:38.486Z,14.25
2023-05-22T20:22:35.294Z,16.77
2023-05-22T20:27:31.912Z,15.05
2023-05-22T20:32:28.599Z,17.13
2023-05-22T20:37:26.436Z,15.10
2023-05-22T20:42:22.959Z,16.98
2023-05-22T20:47:19.577Z,15.00
2023-05-22T20:52:16.042Z,16.10
2023-05-22T20:57:12.542Z,17.00
2023-05-22T21:02:09.237Z,16.95
2023-05-22T21:07:05.789Z,16.00
2023-05-22T21:12:03.900Z,14.82
2023-05-22T21:17:00.445Z,14.10
2023-05-22T21:21:56.930Z,15.27
2023-05-22T21:26:53.513Z,15.88
2023-05-22T21:31:50.116Z,15.25
2023-05-22T21:36:46.595Z,15.57
2023-05-22T21:41:43.062Z,15.10
2023-05-22T21:46:39.669Z,16.63
2023-05-22T21:51:36.231Z,16.65
2023-05-22T21:56:32.679Z,17.80
2023-05-22T22:01:29.264Z,19.27
2023-05-22T22:06:25.789Z,19.50
2023-05-22T22:11:22.565Z,21.73
2023-05-22T22:16:19.143Z,23.90
2023-05-22T22:21:28.220Z,24.30
2023-05-22T22:26:24.662Z,27.38
2023-05-22T22:31:21.637Z,27.77
2023-05-22T22:36:18.095Z,26.58
2023-05-22T22:41:14.532Z,28.23
2023-05-22T22:46:11.122Z,26.63
2023-05-22T22:51:08.317Z,26.20
2023-05-22T22:56:04.785Z,23.17
2023-05-22T23:01:01.639Z,23.23
2023-05-22T23:05:58.076Z,20.33
2023-05-22T23:10:54.541Z,21.15
2023-05-22T23:15:51.058Z,19.98
2023-05-22T23:20:47.627Z,19.38
2023-05-22T23:25:44.087Z,18.58
2023-05-22T23:30:40.486Z,18.35
2023-05-22T23:35:36.925Z,17.75
2023-05-22T23:40:33.314Z,16.58
2023-05-22T23:45:29.730Z,17.55
2023-05-22T23:50:26.175Z,16.80
2023-05-22T23:55:22.597Z,17.13
